createdAt,value
2019-05-16T00:02:10.819Z,3.40
2019-05-16T00:04:38.818Z,2.93
2019-05-16T00:07:08.092Z,2.30
2019-05-16T00:09:38.204Z,2.10
2019-05-16T00:12:06.127Z,1.70
2019-05-16T00:14:33.838Z,1.60
2019-05-16T00:17:01.929Z,1.50
2019-05-16T00:19:29.930Z,1.60
2019-05-16T00:21:58.174Z,1.40
2019-05-16T00:24:25.960Z,2.03
2019-05-16T00:26:53.921Z,2.10
2019-05-16T00:29:21.779Z,1.70
2019-05-16T00:31:49.898Z,1.80
2019-05-16T00:34:18.881Z,1.63
2019-05-16T00:36:48.663Z,1.50
2019-05-16T00:39:18.694Z,1.80
2019-05-16T00:41:47.899Z,1.73
2019-05-16T00:44:15.887Z,1.80
2019-05-16T00:46:43.752Z,1.50
2019-05-16T00:49:11.645Z,1.40
2019-05-16T00:51:39.732Z,1.50
2019-05-16T00:54:08.827Z,1.07
2019-05-16T00:56:38.349Z,1.10
2019-05-16T00:59:07.949Z,0.90
2019-05-16T01:01:38.867Z,1.00
2019-05-16T01:04:08.005Z,1.17
2019-05-16T01:06:38.065Z,0.90
2019-05-16T01:09:08.636Z,1.10
2019-05-16T01:11:38.192Z,1.00
2019-05-16T01:14:08.331Z,1.13
2019-05-16T01:16:38.221Z,0.83
2019-05-16T01:19:08.299Z,2.50
2019-05-16T01:21:36.057Z,1.70
2019-05-16T01:24:03.824Z,1.70
2019-05-16T01:26:31.860Z,1.40
2019-05-16T01:28:59.684Z,0.90
2019-05-16T01:31:28.101Z,1.00
2019-05-16T01:33:58.241Z,1.50
2019-05-16T01:36:36.512Z,1.10
2019-05-16T01:38:55.801Z,1.27
2019-05-16T01:41:23.796Z,0.90
2019-05-16T01:43:51.814Z,0.90
2019-05-16T01:46:19.834Z,0.90
2019-05-16T01:48:48.457Z,1.00
2019-05-16T01:51:18.387Z,0.90
2019-05-16T01:53:48.785Z,0.90
2019-05-16T01:56:17.952Z,0.70
2019-05-16T01:58:46.106Z,0.77
2019-05-16T02:01:15.885Z,1.13
2019-05-16T02:03:44.073Z,0.90
2019-05-16T02:06:11.917Z,0.83
2019-05-16T02:08:39.878Z,0.83
2019-05-16T02:11:08.579Z,0.80
2019-05-16T02:13:38.891Z,0.90
2019-05-16T02:16:08.301Z,1.10
2019-05-16T02:18:38.197Z,0.77
2019-05-16T02:21:07.890Z,0.80
2019-05-16T02:23:38.020Z,0.93
2019-05-16T02:26:07.841Z,1.70
2019-05-16T02:28:39.949Z,0.90
2019-05-16T02:31:05.667Z,0.80
2019-05-16T02:33:33.722Z,0.73
2019-05-16T02:36:01.875Z,0.90
2019-05-16T02:38:31.706Z,0.80
2019-05-16T02:41:03.278Z,0.80
2019-05-16T02:43:31.520Z,0.80
2019-05-16T02:46:01.537Z,0.70
2019-05-16T02:48:31.674Z,0.80
2019-05-16T02:51:01.793Z,0.80
2019-05-16T02:53:30.989Z,1.07
2019-05-16T02:56:01.351Z,0.70
2019-05-16T02:58:30.685Z,0.90
2019-05-16T03:01:01.794Z,0.80
2019-05-16T03:03:31.585Z,0.83
2019-05-16T03:06:01.457Z,0.93
2019-05-16T03:08:32.036Z,0.70
2019-05-16T03:11:01.016Z,0.93
2019-05-16T03:13:31.180Z,0.70
2019-05-16T03:16:00.915Z,0.80
2019-05-16T03:18:30.966Z,1.00
2019-05-16T03:21:00.963Z,0.77
2019-05-16T03:23:30.814Z,0.73
2019-05-16T03:26:00.950Z,0.80
2019-05-16T03:28:30.710Z,0.80
2019-05-16T03:31:04.281Z,2.37
2019-05-16T03:33:35.036Z,1.17
2019-05-16T03:36:03.993Z,0.87
2019-05-16T03:38:30.867Z,1.00
2019-05-16T03:41:01.026Z,3.10
2019-05-16T03:43:30.981Z,0.93
2019-05-16T03:46:02.453Z,1.00
2019-05-16T03:48:31.576Z,0.90
2019-05-16T03:51:00.807Z,0.80
2019-05-16T03:53:31.851Z,0.87
2019-05-16T03:56:01.900Z,0.73
2019-05-16T03:58:30.980Z,0.70
2019-05-16T04:01:02.294Z,0.80
2019-05-16T04:03:32.981Z,1.83
2019-05-16T04:06:01.221Z,0.83
2019-05-16T04:08:31.045Z,0.73
2019-05-16T04:11:01.245Z,0.80
2019-05-16T04:13:31.361Z,0.87
2019-05-16T04:16:01.362Z,0.77
2019-05-16T04:18:31.845Z,0.93
2019-05-16T04:21:01.044Z,1.00
2019-05-16T04:23:31.426Z,1.37
2019-05-16T04:26:00.743Z,2.50
2019-05-16T04:28:31.884Z,0.80
2019-05-16T04:31:01.842Z,1.60
2019-05-16T04:33:30.847Z,1.40
2019-05-16T04:36:01.326Z,1.43
2019-05-16T04:38:39.618Z,1.03
2019-05-16T04:41:01.468Z,1.67
2019-05-16T04:43:31.531Z,0.80
2019-05-16T04:46:01.322Z,1.50
2019-05-16T04:48:31.127Z,0.80
2019-05-16T04:51:01.023Z,0.80
2019-05-16T04:53:31.318Z,1.17
2019-05-16T04:56:01.419Z,1.17
2019-05-16T04:58:31.418Z,0.70
2019-05-16T05:01:01.280Z,0.80
2019-05-16T05:03:31.416Z,1.00
2019-05-16T05:06:00.560Z,1.30
2019-05-16T05:08:30.783Z,1.03
2019-05-16T05:11:01.164Z,2.03
2019-05-16T05:13:30.512Z,1.00
2019-05-16T05:15:57.837Z,4.50
2019-05-16T05:18:25.979Z,0.80
2019-05-16T05:20:53.802Z,3.93
2019-05-16T05:23:21.711Z,7.83
2019-05-16T05:25:51.275Z,4.87
2019-05-16T05:28:21.061Z,5.83
2019-05-16T05:30:50.305Z,5.77
2019-05-16T05:33:20.992Z,7.17
2019-05-16T05:35:50.695Z,6.73
2019-05-16T05:38:21.243Z,4.90
2019-05-16T05:40:51.003Z,5.63
2019-05-16T05:43:21.340Z,6.50
2019-05-16T05:45:51.070Z,4.40
2019-05-16T05:48:21.186Z,4.37
2019-05-16T05:50:50.675Z,3.87
2019-05-16T05:53:20.431Z,6.77
2019-05-16T05:55:50.669Z,8.93
2019-05-16T05:58:20.592Z,5.40
2019-05-16T06:00:52.049Z,12.90
2019-05-16T06:03:22.470Z,7.00
2019-05-16T06:05:50.431Z,8.10
2019-05-16T06:08:20.116Z,4.57
2019-05-16T06:10:50.470Z,8.83
2019-05-16T06:13:20.687Z,9.27
2019-05-16T06:15:48.024Z,6.23
2019-05-16T06:18:16.045Z,3.77
2019-05-16T06:20:43.966Z,4.27
2019-05-16T06:23:11.805Z,3.73
2019-05-16T06:25:40.565Z,7.43
2019-05-16T06:28:10.619Z,5.40
2019-05-16T06:30:40.731Z,4.73
2019-05-16T06:33:10.201Z,5.13
2019-05-16T06:35:40.162Z,5.93
2019-05-16T06:38:09.980Z,5.27
2019-05-16T06:40:40.087Z,5.77
2019-05-16T06:43:10.907Z,9.87
2019-05-16T06:45:40.222Z,7.17
2019-05-16T06:48:10.030Z,4.73
2019-05-16T06:50:40.082Z,5.00
2019-05-16T06:53:10.235Z,4.83
2019-05-16T06:55:37.581Z,4.40
2019-05-16T06:58:05.515Z,3.40
2019-05-16T07:00:33.506Z,2.90
2019-05-16T07:03:01.432Z,4.00
2019-05-16T07:05:29.965Z,4.40
2019-05-16T07:07:59.812Z,5.87
2019-05-16T07:10:28.014Z,6.23
2019-05-16T07:12:55.881Z,5.33
2019-05-16T07:15:23.683Z,3.10
2019-05-16T07:17:51.685Z,3.30
2019-05-16T07:20:20.938Z,5.67
2019-05-16T07:22:50.278Z,4.63
2019-05-16T07:25:20.645Z,3.13
2019-05-16T07:27:51.036Z,3.50
2019-05-16T07:30:19.979Z,3.00
2019-05-16T07:32:50.023Z,4.37
2019-05-16T07:35:20.497Z,5.70
2019-05-16T07:37:49.966Z,4.27
2019-05-16T07:40:23.733Z,2.43
2019-05-16T07:42:50.777Z,6.90
2019-05-16T07:45:20.426Z,2.30
2019-05-16T07:47:50.662Z,3.70
2019-05-16T07:50:20.161Z,5.50
2019-05-16T07:52:50.842Z,3.23
2019-05-16T07:55:20.587Z,2.17
2019-05-16T07:57:47.877Z,2.37
2019-05-16T08:00:16.027Z,2.10
2019-05-16T08:02:44.433Z,2.03
2019-05-16T08:05:12.732Z,2.80
2019-05-16T08:07:40.932Z,5.70
2019-05-16T08:10:11.034Z,3.80
2019-05-16T08:12:40.750Z,2.63
2019-05-16T08:15:10.186Z,3.30
2019-05-16T08:17:44.140Z,1.70
2019-05-16T08:20:07.518Z,2.20
2019-05-16T08:22:35.150Z,3.80
2019-05-16T08:25:03.032Z,4.10
2019-05-16T08:27:31.495Z,3.80
2019-05-16T08:30:02.472Z,4.27
2019-05-16T08:32:31.274Z,3.23
2019-05-16T08:35:01.143Z,3.90
2019-05-16T08:37:41.342Z,2.30
2019-05-16T08:40:00.396Z,5.23
2019-05-16T08:42:32.334Z,2.30
2019-05-16T08:45:01.866Z,3.93
2019-05-16T08:47:32.184Z,8.40
2019-05-16T08:50:00.893Z,2.13
2019-05-16T08:52:31.559Z,2.70
2019-05-16T08:55:03.348Z,5.57
2019-05-16T08:57:32.721Z,1.80
2019-05-16T09:00:01.550Z,2.80
2019-05-16T09:02:35.799Z,1.80
2019-05-16T09:05:04.390Z,4.53
2019-05-16T09:07:31.605Z,1.80
2019-05-16T09:10:00.251Z,2.17
2019-05-16T09:12:27.950Z,1.60
2019-05-16T09:14:59.417Z,2.13
2019-05-16T09:17:27.687Z,2.83
2019-05-16T09:19:57.519Z,4.30
2019-05-16T09:22:24.436Z,1.60
2019-05-16T09:24:52.033Z,1.87
2019-05-16T09:27:19.627Z,4.53
2019-05-16T09:29:47.366Z,3.53
2019-05-16T09:32:17.890Z,3.33
2019-05-16T09:34:47.651Z,2.43
2019-05-16T09:37:14.043Z,4.40
2019-05-16T09:39:41.555Z,2.23
2019-05-16T09:42:09.214Z,1.80
2019-05-16T09:44:37.106Z,1.90
2019-05-16T09:47:07.405Z,2.00
2019-05-16T09:49:36.850Z,2.07
2019-05-16T09:52:03.890Z,2.80
2019-05-16T09:54:31.454Z,2.33
2019-05-16T09:56:59.083Z,3.43
2019-05-16T09:59:26.647Z,2.20
2019-05-16T10:01:56.936Z,4.63
2019-05-16T10:04:26.558Z,1.80
2019-05-16T10:06:53.882Z,1.67
2019-05-16T10:09:22.484Z,1.77
2019-05-16T10:12:07.182Z,3.00
2019-05-16T10:14:22.174Z,3.50
2019-05-16T10:16:51.796Z,2.27
2019-05-16T10:19:19.823Z,4.40
2019-05-16T10:21:47.913Z,2.07
2019-05-16T10:24:16.036Z,5.00
2019-05-16T10:26:46.552Z,2.83
2019-05-16T10:29:14.014Z,2.23
2019-05-16T10:31:51.658Z,1.90
2019-05-16T10:34:12.028Z,2.40
2019-05-16T10:36:40.107Z,2.20
2019-05-16T10:39:08.301Z,3.03
2019-05-16T10:41:37.115Z,2.30
2019-05-16T10:44:06.237Z,2.03
2019-05-16T10:46:34.237Z,1.83
2019-05-16T10:49:02.123Z,2.17
2019-05-16T10:51:30.235Z,2.33
2019-05-16T10:54:09.085Z,2.17
2019-05-16T10:56:28.148Z,3.10
2019-05-16T10:59:25.946Z,3.43
2019-05-16T11:01:28.649Z,3.50
2019-05-16T11:03:56.809Z,5.43
2019-05-16T11:06:29.174Z,3.40
2019-05-16T11:08:57.161Z,2.70
2019-05-16T11:11:27.333Z,3.90
2019-05-16T11:13:54.659Z,3.23
2019-05-16T11:16:22.229Z,5.07
2019-05-16T11:18:49.799Z,1.90
2019-05-16T11:21:19.309Z,3.33
2019-05-16T11:23:47.163Z,2.57
2019-05-16T11:26:15.979Z,2.23
2019-05-16T11:28:43.542Z,2.10
2019-05-16T11:31:11.261Z,2.20
2019-05-16T11:33:39.006Z,2.23
2019-05-16T11:36:08.261Z,2.40
2019-05-16T11:38:37.822Z,1.90
2019-05-16T11:41:07.377Z,3.73
2019-05-16T11:43:36.698Z,3.37
2019-05-16T11:46:04.793Z,2.10
2019-05-16T11:48:32.548Z,1.90
2019-05-16T11:51:00.328Z,2.13
2019-05-16T11:53:28.448Z,2.37
2019-05-16T11:56:01.293Z,3.00
2019-05-16T11:58:26.641Z,2.00
2019-05-16T12:00:57.257Z,2.93
2019-05-16T12:03:24.024Z,2.07
2019-05-16T12:05:51.688Z,2.93
2019-05-16T12:08:19.612Z,6.47
2019-05-16T12:10:47.768Z,2.33
2019-05-16T12:13:25.247Z,3.00
2019-05-16T12:15:45.508Z,2.10
2019-05-16T12:18:13.116Z,4.70
2019-05-16T12:20:40.835Z,3.37
2019-05-16T12:23:08.537Z,1.50
2019-05-16T12:25:36.867Z,3.27
2019-05-16T12:28:07.863Z,2.70
2019-05-16T12:30:37.700Z,1.87
2019-05-16T12:33:07.126Z,1.70
2019-05-16T12:35:36.920Z,6.10
2019-05-16T12:38:07.785Z,2.10
2019-05-16T12:40:34.116Z,3.80
2019-05-16T12:43:02.056Z,1.97
2019-05-16T12:45:29.989Z,2.23
2019-05-16T12:47:59.746Z,2.00
2019-05-16T12:50:28.942Z,2.17
2019-05-16T12:52:56.989Z,2.00
2019-05-16T12:55:26.997Z,2.47
2019-05-16T12:58:11.643Z,3.97
2019-05-16T13:00:27.497Z,2.67
2019-05-16T13:02:54.511Z,5.63
2019-05-16T13:05:22.020Z,2.43
2019-05-16T13:07:49.562Z,2.33
2019-05-16T13:10:17.589Z,2.20
2019-05-16T13:12:45.172Z,2.43
2019-05-16T13:15:12.787Z,2.60
2019-05-16T13:17:40.376Z,2.30
2019-05-16T13:20:08.261Z,3.00
2019-05-16T13:22:38.468Z,2.93
2019-05-16T13:25:07.342Z,3.83
2019-05-16T13:27:37.357Z,3.97
2019-05-16T13:30:07.300Z,2.50
2019-05-16T13:32:37.507Z,4.27
2019-05-16T13:35:07.855Z,4.97
2019-05-16T13:37:36.023Z,5.50
2019-05-16T13:40:04.446Z,3.83
2019-05-16T13:42:32.154Z,2.70
2019-05-16T13:45:01.653Z,5.30
2019-05-16T13:47:30.102Z,5.67
2019-05-16T13:49:58.006Z,3.17
2019-05-16T13:52:28.297Z,6.07
2019-05-16T13:54:56.505Z,5.27
2019-05-16T13:57:28.092Z,6.13
2019-05-16T13:59:56.747Z,5.40
2019-05-16T14:02:26.723Z,3.53
2019-05-16T14:04:56.846Z,4.97
2019-05-16T14:07:25.062Z,4.00
2019-05-16T14:09:53.090Z,3.60
2019-05-16T14:12:21.128Z,3.17
2019-05-16T14:14:49.046Z,3.77
2019-05-16T14:17:17.953Z,3.70
2019-05-16T14:19:47.920Z,4.37
2019-05-16T14:22:17.540Z,3.53
2019-05-16T14:24:47.923Z,3.10
2019-05-16T14:27:14.488Z,3.93
2019-05-16T14:29:42.183Z,3.30
2019-05-16T14:32:10.638Z,3.33
2019-05-16T14:34:38.948Z,3.20
2019-05-16T14:37:07.329Z,3.27
2019-05-16T14:39:38.451Z,3.30
2019-05-16T14:42:04.548Z,3.23
2019-05-16T14:44:32.196Z,4.83
2019-05-16T14:46:59.756Z,3.13
2019-05-16T14:49:28.773Z,3.13
2019-05-16T14:51:58.012Z,2.80
2019-05-16T14:54:26.846Z,3.90
2019-05-16T14:57:00.203Z,4.73
2019-05-16T14:59:27.873Z,7.40
2019-05-16T15:01:57.990Z,7.53
2019-05-16T15:04:29.838Z,9.07
2019-05-16T15:06:54.212Z,4.30
2019-05-16T15:09:22.041Z,3.80
2019-05-16T15:11:49.867Z,3.13
2019-05-16T15:14:17.759Z,2.97
2019-05-16T15:16:48.599Z,2.63
2019-05-16T15:19:17.398Z,4.47
2019-05-16T15:21:47.662Z,3.30
2019-05-16T15:24:17.532Z,2.90
2019-05-16T15:26:47.255Z,5.27
2019-05-16T15:29:16.470Z,3.57
2019-05-16T15:31:46.768Z,3.53
2019-05-16T15:34:14.514Z,5.43
2019-05-16T15:36:43.612Z,3.80
2019-05-16T15:39:11.641Z,3.07
2019-05-16T15:41:39.418Z,3.33
2019-05-16T15:44:07.979Z,2.97
2019-05-16T15:46:37.167Z,3.43
2019-05-16T15:49:09.811Z,3.23
2019-05-16T15:51:36.905Z,3.23
2019-05-16T15:54:06.739Z,3.00
2019-05-16T15:56:37.266Z,3.13
2019-05-16T15:59:06.994Z,3.70
2019-05-16T16:01:37.627Z,2.70
2019-05-16T16:04:06.891Z,3.53
2019-05-16T16:06:34.580Z,3.97
2019-05-16T16:09:06.772Z,5.37
2019-05-16T16:11:34.095Z,3.60
2019-05-16T16:14:03.178Z,4.93
2019-05-16T16:16:31.369Z,4.83
2019-05-16T16:18:59.450Z,3.20
2019-05-16T16:21:27.615Z,2.63
2019-05-16T16:23:57.298Z,3.03
2019-05-16T16:26:26.806Z,4.00
2019-05-16T16:28:55.116Z,4.30
2019-05-16T16:31:23.300Z,4.23
2019-05-16T16:33:51.281Z,3.67
2019-05-16T16:36:19.531Z,3.20
2019-05-16T16:38:47.849Z,2.93
2019-05-16T16:41:17.069Z,3.30
2019-05-16T16:43:47.519Z,3.80
2019-05-16T16:46:16.833Z,3.93
2019-05-16T16:48:45.004Z,4.07
2019-05-16T16:51:12.955Z,5.17
2019-05-16T16:53:40.919Z,3.57
2019-05-16T16:56:09.131Z,3.43
2019-05-16T16:58:37.461Z,3.73
2019-05-16T17:01:07.304Z,3.33
2019-05-16T17:03:36.357Z,4.10
2019-05-16T17:06:04.630Z,3.67
2019-05-16T17:08:32.638Z,4.53
2019-05-16T17:11:00.649Z,5.63
2019-05-16T17:13:28.303Z,4.37
2019-05-16T17:15:56.879Z,4.83
2019-05-16T17:18:27.387Z,4.07
2019-05-16T17:20:57.000Z,4.07
2019-05-16T17:23:26.424Z,4.70
2019-05-16T17:25:56.430Z,4.77
2019-05-16T17:28:24.507Z,5.90
2019-05-16T17:30:52.419Z,4.93
2019-05-16T17:33:20.128Z,3.93
2019-05-16T17:35:49.023Z,3.60
2019-05-16T17:38:17.407Z,4.40
2019-05-16T17:40:46.472Z,3.83
2019-05-16T17:43:16.395Z,3.50
2019-05-16T17:45:43.963Z,3.50
2019-05-16T17:48:12.057Z,3.83
2019-05-16T17:50:39.703Z,2.93
2019-05-16T17:53:07.989Z,3.57
2019-05-16T17:55:37.207Z,4.53
2019-05-16T17:58:08.450Z,3.37
2019-05-16T18:00:34.973Z,6.00
2019-05-16T18:03:03.109Z,3.47
2019-05-16T18:05:31.508Z,3.67
2019-05-16T18:07:59.499Z,3.10
2019-05-16T18:10:27.533Z,3.10
2019-05-16T18:12:56.824Z,3.97
2019-05-16T18:15:25.366Z,3.37
2019-05-16T18:17:53.617Z,3.60
2019-05-16T18:20:22.477Z,4.53
2019-05-16T18:22:50.600Z,3.83
2019-05-16T18:25:18.518Z,5.33
2019-05-16T18:27:46.533Z,4.83
2019-05-16T18:30:16.736Z,4.63
2019-05-16T18:32:45.729Z,3.77
2019-05-16T18:35:16.581Z,3.67
2019-05-16T18:37:46.288Z,6.10
2019-05-16T18:40:16.389Z,5.07
2019-05-16T18:42:44.069Z,3.83
2019-05-16T18:45:12.139Z,4.63
2019-05-16T18:47:40.255Z,3.27
2019-05-16T18:50:09.360Z,3.13
2019-05-16T18:52:37.780Z,4.87
2019-05-16T18:55:08.394Z,6.33
2019-05-16T18:57:37.736Z,3.70
2019-05-16T19:00:07.038Z,3.00
2019-05-16T19:02:36.928Z,3.27
2019-05-16T19:05:06.914Z,5.37
2019-05-16T19:07:37.001Z,5.33
2019-05-16T19:10:06.844Z,6.33
2019-05-16T19:12:37.179Z,5.97
2019-05-16T19:15:07.121Z,4.90
2019-05-16T19:17:35.382Z,3.60
2019-05-16T19:20:03.392Z,3.50
2019-05-16T19:22:31.883Z,3.53
2019-05-16T19:24:59.837Z,6.90
2019-05-16T19:27:27.882Z,5.43
2019-05-16T19:29:57.210Z,4.07
2019-05-16T19:32:25.245Z,5.67
2019-05-16T19:34:53.190Z,3.60
2019-05-16T19:37:21.291Z,4.87
2019-05-16T19:39:49.301Z,5.40
2019-05-16T19:42:17.408Z,3.83
2019-05-16T19:44:46.424Z,4.43
2019-05-16T19:47:14.554Z,3.87
2019-05-16T19:49:42.270Z,4.00
2019-05-16T19:52:10.202Z,4.77
2019-05-16T19:54:38.093Z,4.23
2019-05-16T19:57:07.249Z,3.23
2019-05-16T19:59:36.674Z,3.90
2019-05-16T20:02:04.913Z,4.53
2019-05-16T20:04:32.842Z,4.10
2019-05-16T20:07:01.010Z,3.47
2019-05-16T20:09:30.341Z,5.63
2019-05-16T20:11:58.480Z,3.63
2019-05-16T20:14:27.293Z,3.87
2019-05-16T20:16:56.642Z,3.67
2019-05-16T20:19:26.676Z,3.47
2019-05-16T20:21:54.666Z,5.20
2019-05-16T20:24:22.414Z,3.90
2019-05-16T20:26:50.058Z,4.20
2019-05-16T20:29:17.794Z,4.43
2019-05-16T20:31:47.417Z,5.00
2019-05-16T20:34:17.350Z,5.40
2019-05-16T20:36:46.493Z,3.90
2019-05-16T20:39:16.706Z,5.93
2019-05-16T20:41:44.189Z,5.10
2019-05-16T20:44:11.837Z,4.63
2019-05-16T20:46:39.657Z,4.80
2019-05-16T20:49:07.830Z,4.17
2019-05-16T20:51:37.608Z,5.20
2019-05-16T20:54:07.081Z,14.43
2019-05-16T20:56:35.086Z,5.17
2019-05-16T20:59:02.854Z,5.90
2019-05-16T21:01:30.966Z,6.20
2019-05-16T21:03:58.902Z,7.27
2019-05-16T21:06:27.091Z,5.87
2019-05-16T21:08:57.460Z,6.27
2019-05-16T21:11:26.431Z,6.80
2019-05-16T21:13:56.532Z,5.67
2019-05-16T21:16:26.841Z,6.20
2019-05-16T21:18:54.468Z,6.20
2019-05-16T21:21:22.354Z,7.10
2019-05-16T21:23:50.206Z,7.10
2019-05-16T21:26:19.173Z,8.40
2019-05-16T21:28:47.141Z,9.23
2019-05-16T21:31:16.423Z,6.83
2019-05-16T21:33:46.936Z,6.40
2019-05-16T21:36:16.093Z,6.87
2019-05-16T21:38:46.923Z,6.33
2019-05-16T21:41:16.821Z,7.00
2019-05-16T21:43:46.982Z,7.13
2019-05-16T21:46:17.123Z,7.87
2019-05-16T21:48:47.176Z,6.77
2019-05-16T21:51:17.034Z,7.43
2019-05-16T21:53:44.109Z,7.20
2019-05-16T21:56:11.796Z,9.63
2019-05-16T21:58:39.911Z,7.47
2019-05-16T22:01:09.361Z,6.83
2019-05-16T22:03:39.127Z,6.97
2019-05-16T22:06:08.033Z,8.73
2019-05-16T22:08:38.033Z,7.60
2019-05-16T22:11:07.728Z,7.43
2019-05-16T22:13:37.756Z,6.90
2019-05-16T22:16:08.082Z,8.13
2019-05-16T22:18:38.120Z,7.63
2019-05-16T22:21:07.594Z,7.30
2019-05-16T22:23:37.345Z,7.93
2019-05-16T22:26:07.678Z,9.27
2019-05-16T22:28:37.383Z,7.60
2019-05-16T22:31:07.453Z,6.93
2019-05-16T22:33:37.265Z,7.67
2019-05-16T22:36:06.857Z,8.20
2019-05-16T22:38:34.772Z,7.30
2019-05-16T22:41:02.397Z,7.53
2019-05-16T22:43:30.391Z,8.90
2019-05-16T22:45:58.227Z,8.10
2019-05-16T22:48:26.647Z,7.00
2019-05-16T22:50:56.493Z,6.93
2019-05-16T22:53:27.043Z,7.43
2019-05-16T22:55:56.538Z,7.80
2019-05-16T22:58:26.765Z,7.33
2019-05-16T23:00:54.127Z,7.00
2019-05-16T23:03:22.283Z,7.50
2019-05-16T23:05:50.141Z,7.70
2019-05-16T23:08:18.056Z,8.07
2019-05-16T23:10:46.856Z,7.90
2019-05-16T23:13:16.915Z,7.10
2019-05-16T23:15:44.895Z,7.73
2019-05-16T23:18:13.151Z,7.73
2019-05-16T23:20:41.037Z,7.43
2019-05-16T23:23:09.076Z,6.70
2019-05-16T23:25:37.409Z,7.30
2019-05-16T23:28:07.760Z,7.23
2019-05-16T23:30:36.583Z,7.27
2019-05-16T23:33:06.895Z,8.33
2019-05-16T23:35:34.653Z,7.20
2019-05-16T23:38:14.661Z,8.83
2019-05-16T23:40:32.338Z,7.23
2019-05-16T23:43:00.362Z,7.53
2019-05-16T23:45:28.280Z,7.97
2019-05-16T23:47:56.436Z,7.80
2019-05-16T23:50:24.402Z,7.97
2019-05-16T23:52:52.340Z,8.67
2019-05-16T23:55:20.125Z,8.30
2019-05-16T23:57:48.192Z,8.40
